Time;durP1;ratioP1;P1;durP2;ratioP2;P2;SDS_P1;SDS_P2;PMS_P1;PMS_P2;Temp;Humidity;BMP_temperature;BMP_pressure;BME280_temperature;BME280_humidity;BME280_pressure;Samples;Min_cycle;Max_cycle;Signal;HPM_P1;HPM_P2
2022/12/01 05:01:22;;;;;;;19.37;8.73;;;;;;;0.50;100.00;101126.44;5326936;33;32559;-85
2022/12/01 05:04:25;;;;;;;16.70;8.60;;;;;;;0.38;100.00;101133.34;5327638;33;33439;-85
2022/12/01 05:07:28;;;;;;;18.17;8.35;;;;;;;0.21;100.00;101127.31;5327151;33;33408;-86
2022/12/01 05:10:35;;;;;;;22.92;9.20;;;;;;;0.19;100.00;101115.09;5326642;33;34524;-86
2022/12/01 05:13:39;;;;;;;19.48;9.20;;;;;;;0.21;100.00;101108.78;5326040;33;34415;-85
2022/12/01 05:16:42;;;;;;;22.37;9.38;;;;;;;0.20;100.00;101103.56;5325838;33;34307;-85
2022/12/01 05:23:28;;;;;;;22.67;9.60;;;;;;;0.21;100.00;101110.56;5287347;33;33790;-85
2022/12/01 05:26:30;;;;;;;20.15;8.98;;;;;;;0.11;100.00;101110.25;5287909;33;33449;-85
2022/12/01 05:29:34;;;;;;;18.17;8.60;;;;;;;0.09;100.00;101114.81;5325303;33;33168;-85
2022/12/01 05:32:37;;;;;;;21.12;9.18;;;;;;;0.02;100.00;101110.81;5326174;33;33849;-85
2022/12/01 05:35:40;;;;;;;19.85;8.98;;;;;;;-0.04;100.00;101117.31;5326272;33;34886;-85
2022/12/01 05:38:42;;;;;;;22.17;10.18;;;;;;;-0.10;100.00;101111.56;5327348;33;33552;-85
2022/12/01 05:41:46;;;;;;;26.60;10.02;;;;;;;-0.09;100.00;101118.53;5326010;33;33306;-84
2022/12/01 05:44:48;;;;;;;19.25;8.25;;;;;;;-0.13;100.00;101111.75;5325650;33;34240;-85
2022/12/01 05:47:55;;;;;;;24.20;9.68;;;;;;;-0.18;100.00;101113.81;5326453;33;33852;-85
2022/12/01 05:50:58;;;;;;;19.87;9.68;;;;;;;-0.20;100.00;101113.91;5325361;33;33251;-85
2022/12/01 05:54:01;;;;;;;21.45;9.48;;;;;;;-0.27;100.00;101117.84;5326129;33;33564;-85
2022/12/01 05:57:03;;;;;;;21.52;10.25;;;;;;;-0.27;100.00;101118.69;5325916;33;33481;-85
2022/12/01 06:00:07;;;;;;;23.27;10.90;;;;;;;-0.29;100.00;101123.25;5329618;33;33270;-86
2022/12/01 06:03:13;;;;;;;25.33;11.23;;;;;;;-0.31;100.00;101116.31;5326522;33;33217;-86
2022/12/01 06:06:16;;;;;;;24.50;11.57;;;;;;;-0.33;100.00;101120.84;5327998;33;33674;-85
2022/12/01 06:09:18;;;;;;;28.08;13.13;;;;;;;-0.33;100.00;101124.34;5325958;33;33161;-85
2022/12/01 06:12:21;;;;;;;28.95;12.45;;;;;;;-0.19;100.00;101130.62;5327191;33;34205;-85
2022/12/01 06:15:24;;;;;;;26.83;13.10;;;;;;;-0.09;100.00;101143.25;5327057;33;33333;-85
2022/12/01 06:18:30;;;;;;;29.65;13.95;;;;;;;-0.09;100.00;101145.87;5327418;33;33658;-89
2022/12/01 06:21:33;;;;;;;29.45;13.95;;;;;;;0.04;100.00;101138.06;5332809;33;33669;-89
2022/12/01 06:24:36;;;;;;;22.33;12.40;;;;;;;0.04;100.00;101137.22;5343943;33;33837;-90
2022/12/01 06:27:38;;;;;;;32.22;14.60;;;;;;;0.04;100.00;101138.06;5327962;33;33385;-86
2022/12/01 06:30:41;;;;;;;30.27;15.18;;;;;;;-0.03;100.00;101140.22;5328514;33;34153;-85
2022/12/01 06:33:44;;;;;;;28.67;13.80;;;;;;;0.03;100.00;101139.00;5331590;33;34492;-85
2022/12/01 06:36:47;;;;;;;31.70;14.57;;;;;;;0.14;100.00;101141.00;5316059;33;34275;-85
2022/12/01 06:39:49;;;;;;;30.25;15.18;;;;;;;0.07;100.00;101137.88;5325586;33;34327;-85
2022/12/01 06:42:53;;;;;;;29.05;14.65;;;;;;;0.19;100.00;101134.47;5329868;33;33584;-85
2022/12/01 06:45:56;;;;;;;31.85;14.82;;;;;;;0.20;100.00;101130.88;5328152;33;34101;-85
2022/12/01 06:49:04;;;;;;;31.73;16.35;;;;;;;0.33;100.00;101138.09;5330289;33;33831;-85
2022/12/01 06:52:06;;;;;;;33.42;15.40;;;;;;;0.39;100.00;101137.72;5318264;33;33564;-85
2022/12/01 06:55:09;;;;;;;32.97;14.45;;;;;;;0.47;100.00;101132.81;5310998;33;32870;-85
2022/12/01 06:58:12;;;;;;;32.58;14.98;;;;;;;0.38;100.00;101136.00;5300845;33;219921;-85
2022/12/01 07:01:16;;;;;;;28.45;14.02;;;;;;;0.40;100.00;101134.12;5324856;33;34347;-85
2022/12/01 07:04:19;;;;;;;26.65;14.65;;;;;;;0.47;100.00;101137.25;5325254;33;33556;-86
2022/12/01 07:07:23;;;;;;;28.62;14.13;;;;;;;0.55;100.00;101130.53;5311416;33;33338;-86
2022/12/01 07:10:26;;;;;;;31.92;14.77;;;;;;;0.59;100.00;101131.22;5325773;33;33665;-85
2022/12/01 07:13:30;;;;;;;29.15;14.55;;;;;;;0.57;100.00;101139.25;5324243;33;33544;-85
2022/12/01 07:16:36;;;;;;;30.10;14.18;;;;;;;0.56;100.00;101139.34;5316333;33;33047;-85
2022/12/01 07:19:39;;;;;;;36.50;14.35;;;;;;;0.72;100.00;101141.87;5311586;33;32385;-86
2022/12/01 07:22:42;;;;;;;30.92;15.32;;;;;;;0.87;100.00;101139.09;5325969;33;34072;-85
2022/12/01 07:25:44;;;;;;;29.15;14.25;;;;;;;1.02;100.00;101147.03;5324310;33;34003;-85
2022/12/01 07:28:47;;;;;;;30.67;14.18;;;;;;;1.13;100.00;101141.91;5316142;33;33700;-85
2022/12/01 07:31:50;;;;;;;33.63;14.80;;;;;;;1.19;100.00;101149.47;5319179;33;33061;-85
2022/12/01 07:34:52;;;;;;;27.75;14.45;;;;;;;1.20;100.00;101148.53;5324288;33;33580;-85
2022/12/01 07:37:55;;;;;;;27.75;13.05;;;;;;;1.29;100.00;101147.94;5310147;33;32615;-85
2022/12/01 07:41:06;;;;;;;28.15;14.90;;;;;;;1.43;100.00;101147.03;5324503;33;34318;-85
2022/12/01 07:44:10;;;;;;;29.10;14.02;;;;;;;1.57;100.00;101156.75;5311813;33;32680;-85
2022/12/01 07:47:13;;;;;;;28.45;14.40;;;;;;;1.69;100.00;101141.81;5325063;33;34496;-86
2022/12/01 07:50:16;;;;;;;22.25;12.35;;;;;;;1.72;100.00;101142.47;5323351;33;34497;-86
2022/12/01 07:53:18;;;;;;;26.80;13.80;;;;;;;1.84;100.00;101138.13;5333594;33;33185;-85
2022/12/01 07:56:22;;;;;;;28.73;13.00;;;;;;;1.93;100.00;101137.53;5318467;33;32904;-86
2022/12/01 07:59:25;;;;;;;24.90;12.85;;;;;;;2.07;100.00;101144.53;5330887;33;35138;-86
2022/12/01 08:02:28;;;;;;;24.85;12.82;;;;;;;2.19;100.00;101154.34;5330847;33;33059;-86
2022/12/01 08:05:30;;;;;;;25.88;13.18;;;;;;;2.24;100.00;101148.72;5353269;33;34244;-86
2022/12/01 08:08:35;;;;;;;26.98;14.70;;;;;;;2.33;100.00;101161.38;5341747;33;33156;-86
2022/12/01 08:11:38;;;;;;;27.37;14.20;;;;;;;2.40;100.00;101162.66;5342138;33;33950;-86
2022/12/01 08:14:40;;;;;;;28.67;14.63;;;;;;;2.61;100.00;101159.47;5341634;33;33554;-86
2022/12/01 08:17:43;;;;;;;23.55;13.27;;;;;;;2.75;100.00;101159.34;5348808;33;33979;-85
2022/12/01 08:20:46;;;;;;;30.62;13.43;;;;;;;2.88;100.00;101160.16;5341990;33;33422;-86
2022/12/01 08:23:56;;;;;;;26.20;13.52;;;;;;;3.01;100.00;101149.50;5342213;33;33092;-86
2022/12/01 08:26:59;;;;;;;;;;;;;;;3.06;100.00;101138.53;5345875;33;33938;-89
2022/12/01 08:30:01;;;;;;;23.62;13.05;;;;;;;3.08;100.00;101145.44;5338759;33;34850;-89
2022/12/01 08:33:04;;;;;;;26.85;13.65;;;;;;;3.21;100.00;101139.22;5343568;33;33900;-89
2022/12/01 08:36:08;;;;;;;30.20;13.23;;;;;;;3.34;100.00;101148.03;5358439;33;36239;-89
2022/12/01 08:39:10;;;;;;;27.13;13.50;;;;;;;3.46;100.00;101146.28;5350382;33;31847;-87
2022/12/01 08:42:13;;;;;;;25.33;14.00;;;;;;;3.63;100.00;101152.06;5355964;33;33789;-86
2022/12/01 08:45:16;;;;;;;22.92;13.32;;;;;;;3.75;100.00;101150.28;5355894;33;33828;-86
2022/12/01 08:48:19;;;;;;;25.12;13.82;;;;;;;3.85;99.18;101159.28;5351423;33;33666;-86
2022/12/01 08:51:21;;;;;;;24.77;12.75;;;;;;;4.00;96.88;101159.09;5355789;33;33514;-86
2022/12/01 08:54:24;;;;;;;24.25;13.88;;;;;;;3.99;95.97;101158.25;5354297;33;33631;-86
2022/12/01 08:57:30;;;;;;;28.35;13.23;;;;;;;4.16;96.40;101161.47;5355168;33;33780;-86
2022/12/01 09:00:33;;;;;;;24.85;13.13;;;;;;;4.28;95.79;101156.03;5354212;33;32253;-86
2022/12/01 09:03:37;;;;;;;26.35;14.60;;;;;;;4.40;95.87;101151.56;5354727;33;34860;-85
2022/12/01 09:06:42;;;;;;;27.27;15.02;;;;;;;4.35;95.88;101147.53;5343551;33;34124;-86
2022/12/01 09:09:45;;;;;;;30.00;14.07;;;;;;;4.35;95.89;101145.72;5342117;33;32161;-85
2022/12/01 09:12:48;;;;;;;26.85;14.30;;;;;;;4.53;93.35;101152.31;5341736;33;33526;-86
2022/12/01 09:16:12;;;;;;;25.45;13.38;;;;;;;4.60;90.50;101146.50;5341262;33;33665;-84
2022/12/01 09:19:17;;;;;;;24.65;13.38;;;;;;;4.81;91.08;101144.78;5341789;33;34384;-86
2022/12/01 09:22:26;;;;;;;27.00;14.13;;;;;;;4.76;90.78;101145.16;5340835;33;34307;-87
2022/12/01 09:25:29;;;;;;;27.45;13.52;;;;;;;4.73;91.46;101136.53;5341310;33;34298;-86
2022/12/01 09:28:32;;;;;;;26.70;13.93;;;;;;;4.86;92.13;101133.78;5343482;33;33173;-85
2022/12/01 09:31:36;;;;;;;31.50;13.82;;;;;;;4.81;92.14;101127.94;5343596;33;33431;-86
2022/12/01 09:34:39;;;;;;;26.60;14.00;;;;;;;4.81;92.84;101136.78;5344092;33;34216;-86
2022/12/01 09:37:42;;;;;;;30.33;14.10;;;;;;;4.91;90.99;101126.22;5343990;33;34346;-86
2022/12/01 09:40:45;;;;;;;25.52;14.60;;;;;;;4.86;94.05;101129.28;5344270;33;33757;-85
2022/12/01 09:44:01;;;;;;;25.65;14.10;;;;;;;4.94;90.37;101133.97;5347219;33;34483;-86
2022/12/01 09:47:19;;;;;;;24.25;13.70;;;;;;;5.05;91.44;101128.63;5343675;33;33997;-86
2022/12/01 09:50:24;;;;;;;24.52;13.62;;;;;;;5.21;89.82;101117.59;5343171;33;34273;-86
2022/12/01 09:53:30;;;;;;;25.10;14.57;;;;;;;5.40;90.55;101123.09;5343370;33;34384;-86
2022/12/01 09:56:41;;;;;;;23.10;13.52;;;;;;;5.41;89.53;101119.47;5343357;33;33568;-86
2022/12/01 09:59:45;;;;;;;27.67;15.38;;;;;;;5.56;88.68;101122.69;5343557;33;33427;-90
2022/12/01 10:03:05;;;;;;;24.17;13.73;;;;;;;5.62;85.10;101108.81;5343363;33;33356;-90
2022/12/01 10:06:19;;;;;;;24.77;13.80;;;;;;;5.80;84.58;101109.09;5343245;33;33111;-86
2022/12/01 10:09:52;;;;;;;25.00;13.30;;;;;;;5.89;82.51;101105.66;5344523;33;34633;-86
2022/12/01 10:12:55;;;;;;;25.27;13.60;;;;;;;5.96;83.31;101108.69;5342996;33;31855;-86
2022/12/01 10:16:07;;;;;;;21.95;12.15;;;;;;;6.15;78.87;101101.78;5345252;33;33442;-86
2022/12/01 10:19:31;;;;;;;22.42;11.40;;;;;;;6.30;77.24;101106.66;5337765;33;33704;-86
2022/12/01 10:22:44;;;;;;;18.98;11.27;;;;;;;6.20;77.89;101105.78;5342710;33;34220;-86
2022/12/01 10:25:58;;;;;;;22.25;11.63;;;;;;;6.08;76.47;101101.44;5344856;33;33363;-86
2022/12/01 10:29:39;;;;;;;17.37;10.65;;;;;;;6.27;77.20;101104.25;5343083;33;31787;-85
2022/12/01 10:32:51;;;;;;;19.73;10.57;;;;;;;6.40;78.38;101092.47;5338694;33;33912;-86
2022/12/01 10:35:54;;;;;;;21.33;12.30;;;;;;;6.41;75.96;101095.03;5349626;33;33897;-86
2022/12/01 10:38:57;;;;;;;21.05;11.90;;;;;;;6.45;78.95;101085.75;5343130;33;33809;-84
2022/12/01 10:42:06;;;;;;;21.25;11.98;;;;;;;6.36;76.96;101089.22;5342746;33;34854;-84
2022/12/01 10:45:25;;;;;;;20.98;11.68;;;;;;;6.56;77.98;101090.19;5327459;33;31901;-84
2022/12/01 10:48:28;;;;;;;23.08;12.73;;;;;;;6.77;73.53;101076.72;5329244;33;31950;-84
2022/12/01 10:51:45;;;;;;;20.55;11.60;;;;;;;6.86;75.48;101073.22;5320518;33;32834;-84
2022/12/01 10:54:48;;;;;;;20.02;11.90;;;;;;;7.19;74.55;101074.69;5334416;33;33811;-84
2022/12/01 10:57:54;;;;;;;18.77;12.35;;;;;;;7.39;72.15;101072.06;5340102;33;33407;-84
2022/12/01 11:01:03;;;;;;;18.75;11.10;;;;;;;7.39;71.23;101070.22;5341552;33;32202;-84
2022/12/01 11:04:41;;;;;;;20.52;12.37;;;;;;;7.18;70.68;101069.50;5339196;33;33530;-84
2022/12/01 11:07:48;;;;;;;20.77;11.30;;;;;;;7.46;71.05;101063.31;5339542;33;33152;-84
2022/12/01 11:10:51;;;;;;;18.67;10.30;;;;;;;7.68;71.87;101072.06;5337789;33;34438;-84
2022/12/01 11:13:55;;;;;;;18.52;10.95;;;;;;;7.78;70.79;101062.19;5341159;33;34483;-85
2022/12/01 11:17:15;;;;;;;16.98;11.00;;;;;;;8.05;69.04;101057.91;5315814;33;32961;-86
2022/12/01 11:20:25;;;;;;;20.60;10.70;;;;;;;7.93;67.94;101063.44;5342640;33;33513;-86
2022/12/01 11:23:28;;;;;;;18.37;9.75;;;;;;;8.35;67.82;101048.78;5342274;33;33798;-86
2022/12/01 11:26:33;;;;;;;17.98;10.65;;;;;;;8.62;65.05;101042.59;5339629;33;33506;-86
2022/12/01 11:29:38;;;;;;;17.25;10.57;;;;;;;8.63;64.17;101044.31;5339078;33;33421;-85
2022/12/01 11:32:55;;;;;;;18.98;10.65;;;;;;;8.44;65.54;101041.72;5344122;33;33992;-86
2022/12/01 11:35:58;;;;;;;18.70;10.80;;;;;;;8.48;65.98;101043.09;5334900;33;33879;-85
2022/12/01 11:39:02;;;;;;;19.90;11.32;;;;;;;7.82;66.47;101039.47;5329292;33;31962;-85
2022/12/01 11:42:11;;;;;;;18.02;10.45;;;;;;;8.18;68.00;101036.97;5351830;33;33813;-86
2022/12/01 11:45:22;;;;;;;19.20;11.12;;;;;;;8.18;66.67;101037.81;5351890;33;34968;-86
2022/12/01 11:48:28;;;;;;;18.00;10.48;;;;;;;8.27;67.81;101032.56;5343149;33;33472;-86
2022/12/01 11:51:36;;;;;;;18.05;11.02;;;;;;;8.78;65.06;101028.56;5345242;33;34212;-86
2022/12/01 11:54:54;;;;;;;20.67;10.90;;;;;;;8.99;63.74;101030.97;5324077;33;31886;-86
2022/12/01 11:58:04;;;;;;;18.35;10.60;;;;;;;10.17;59.07;101029.75;5345947;33;33624;-86
2022/12/01 12:01:31;;;;;;;17.15;9.80;;;;;;;11.32;56.56;101023.81;5335368;33;33706;-84
2022/12/01 12:05:13;;;;;;;16.75;9.45;;;;;;;11.93;55.46;101021.62;5341959;33;33793;-85
2022/12/01 12:08:42;;;;;;;17.48;10.70;;;;;;;12.23;52.73;101020.06;5335051;33;32330;-89
2022/12/01 12:11:56;;;;;;;;;;;;;;;11.67;53.25;101026.31;5340836;33;33684;-85
2022/12/01 12:15:14;;;;;;;14.77;9.30;;;;;;;11.47;52.83;101020.44;5327329;33;33504;-85
2022/12/01 12:18:35;;;;;;;15.18;8.80;;;;;;;11.12;54.09;101019.75;5341388;33;33581;-86
2022/12/01 12:21:48;;;;;;;17.20;9.70;;;;;;;11.31;54.91;101013.19;5339130;33;33644;-85
2022/12/01 12:24:51;;;;;;;17.05;9.48;;;;;;;11.39;53.60;101025.84;5337806;33;34437;-85
2022/12/01 12:28:24;;;;;;;18.27;8.63;;;;;;;11.10;54.84;101014.50;5339797;33;33540;-85
2022/12/01 12:31:58;;;;;;;17.95;9.93;;;;;;;11.19;53.84;101011.81;5323622;33;33520;-85
2022/12/01 12:35:15;;;;;;;19.92;9.63;;;;;;;12.21;51.26;101013.13;5330906;33;33096;-85
2022/12/01 12:38:59;;;;;;;16.08;9.13;;;;;;;14.19;46.50;101012.50;5343691;33;34111;-87
2022/12/01 12:42:36;;;;;;;13.60;8.80;;;;;;;15.92;41.49;101002.78;5344698;33;33722;-85
2022/12/01 12:46:10;;;;;;;12.40;8.88;;;;;;;14.82;42.73;101004.81;5332620;33;33624;-86
2022/12/01 12:49:21;;;;;;;15.57;8.98;;;;;;;15.70;41.76;101004.69;5342663;33;34311;-85
2022/12/01 12:52:32;;;;;;;15.85;9.35;;;;;;;15.04;43.16;101005.72;5343716;33;33614;-86
2022/12/01 12:55:45;;;;;;;15.50;8.75;;;;;;;14.65;44.14;101004.19;5331300;33;31319;-86
2022/12/01 12:59:06;;;;;;;13.82;9.00;;;;;;;13.66;45.88;101008.09;5332650;33;33705;-85
2022/12/01 13:02:18;;;;;;;14.30;9.13;;;;;;;12.42;49.48;101005.31;5339425;33;33662;-90
2022/12/01 13:05:42;;;;;;;15.70;9.27;;;;;;;10.81;52.51;101012.25;5337906;33;34040;-85
2022/12/01 13:08:51;;;;;;;18.65;9.30;;;;;;;9.45;56.92;101016.47;5330617;33;33444;-85
2022/12/01 13:12:00;;;;;;;16.35;9.65;;;;;;;9.05;59.13;101014.25;5336370;33;33551;-86
2022/12/01 13:15:15;;;;;;;16.42;9.15;;;;;;;8.65;60.98;101002.06;5341318;33;32145;-86
2022/12/01 13:18:21;;;;;;;12.68;7.62;;;;;;;8.31;62.64;101004.47;5341206;33;33780;-86
2022/12/01 13:21:24;;;;;;;15.10;8.93;;;;;;;8.03;63.84;101000.88;5341962;33;34803;-86
2022/12/01 13:24:30;;;;;;;17.00;9.02;;;;;;;7.89;64.50;100997.66;5343124;33;34157;-86
2022/12/01 13:27:39;;;;;;;17.62;9.23;;;;;;;7.58;65.89;100997.03;5330945;33;32117;-86
2022/12/01 13:30:57;;;;;;;13.35;8.02;;;;;;;7.44;68.37;101009.03;5341616;33;34905;-86
2022/12/01 13:34:03;;;;;;;14.45;8.90;;;;;;;7.34;67.60;100994.81;5341176;33;33382;-85
2022/12/01 13:37:08;;;;;;;16.85;8.52;;;;;;;7.29;68.32;101002.41;5342359;33;33979;-86
2022/12/01 13:40:20;;;;;;;13.00;7.95;;;;;;;7.19;68.68;101001.56;5329670;33;32173;-86
2022/12/01 13:43:24;;;;;;;15.93;8.10;;;;;;;7.17;69.31;101003.56;5331041;33;33721;-86
2022/12/01 13:46:30;;;;;;;15.27;8.85;;;;;;;7.12;69.58;101006.63;5348742;33;33140;-85
2022/12/01 13:49:41;;;;;;;14.98;7.97;;;;;;;7.01;69.20;101001.41;5345237;33;34364;-86
2022/12/01 13:52:49;;;;;;;14.85;8.25;;;;;;;6.99;69.57;101003.37;5325502;33;31886;-86
2022/12/01 13:56:02;;;;;;;14.55;8.70;;;;;;;7.04;69.69;101004.66;5331262;33;34952;-90
2022/12/01 13:59:38;;;;;;;16.48;9.23;;;;;;;7.06;71.05;100998.31;5323200;33;32280;-86
2022/12/01 14:02:42;;;;;;;16.75;8.85;;;;;;;6.95;71.04;100996.63;5325495;33;33501;-86
2022/12/01 14:05:51;;;;;;;17.35;8.55;;;;;;;6.88;71.84;101006.19;5323755;33;33298;-86
2022/12/01 14:09:01;;;;;;;18.08;8.55;;;;;;;6.69;72.10;100998.97;5325678;33;34796;-86
2022/12/01 14:12:25;;;;;;;17.37;8.20;;;;;;;6.59;72.94;101005.12;5329179;33;34543;-86
2022/12/01 14:15:30;;;;;;;15.35;9.57;;;;;;;6.50;72.84;100997.09;5331734;33;34158;-86
2022/12/01 14:18:36;;;;;;;13.73;8.25;;;;;;;6.37;73.73;100998.16;5326013;33;32302;-86
2022/12/01 14:21:46;;;;;;;15.57;8.57;;;;;;;6.27;75.80;100999.13;5328168;33;34384;-85
2022/12/01 14:24:51;;;;;;;16.25;8.50;;;;;;;6.16;76.03;100994.69;5325143;33;33532;-86
2022/12/01 14:27:58;;;;;;;16.42;8.43;;;;;;;6.06;75.85;100996.50;5326055;33;34310;-86
2022/12/01 14:31:03;;;;;;;14.52;8.38;;;;;;;5.97;76.66;100997.28;5324940;33;34401;-84
2022/12/01 14:34:18;;;;;;;16.35;8.18;;;;;;;5.87;78.28;101000.72;5309478;33;31739;-86
2022/12/01 14:37:26;;;;;;;16.75;8.65;;;;;;;5.81;78.45;100997.72;5313690;33;33764;-85
2022/12/01 14:40:29;;;;;;;17.55;9.18;;;;;;;5.73;78.93;100998.38;5323883;33;33706;-86
2022/12/01 14:47:00;;;;;;;14.80;9.32;;;;;;;5.52;82.03;100997.53;5324937;33;33520;-86
2022/12/01 14:50:10;;;;;;;17.73;9.43;;;;;;;5.45;80.87;100991.88;5326706;33;33666;-86
2022/12/01 14:53:22;;;;;;;16.50;8.65;;;;;;;5.36;81.61;100998.00;5322075;33;33242;-86
2022/12/01 14:56:27;;;;;;;16.08;9.10;;;;;;;5.26;81.33;100997.06;5323706;33;35352;-85
2022/12/01 14:59:29;;;;;;;15.10;8.02;;;;;;;5.17;82.31;101002.19;5323394;33;33579;-86
2022/12/01 15:02:38;;;;;;;13.10;8.00;;;;;;;5.14;83.39;101004.28;5320388;33;33560;-86
2022/12/01 15:05:43;;;;;;;16.35;8.10;;;;;;;5.07;82.40;101003.94;5326647;33;34214;-86
2022/12/01 15:09:02;;;;;;;14.52;7.87;;;;;;;5.01;82.12;101007.13;5324861;33;33721;-86
2022/12/01 15:12:26;;;;;;;14.77;7.57;;;;;;;5.00;82.31;101000.94;5324568;33;34023;-86
2022/12/01 15:15:29;;;;;;;15.75;8.40;;;;;;;4.96;82.31;101003.97;5309456;33;31882;-87
2022/12/01 15:18:35;;;;;;;12.75;7.72;;;;;;;4.88;82.94;101001.91;5316928;33;34675;-87
2022/12/01 15:21:38;;;;;;;16.60;8.27;;;;;;;4.88;82.96;101001.91;5315449;33;34122;-87
2022/12/01 15:24:42;;;;;;;16.15;8.07;;;;;;;4.84;83.31;101005.81;5310654;33;33068;-85
2022/12/01 15:27:45;;;;;;;14.38;7.55;;;;;;;4.83;83.37;101006.81;5323993;33;33602;-86
2022/12/01 15:30:53;;;;;;;13.95;7.60;;;;;;;4.80;83.54;101008.84;5310431;33;32321;-86
2022/12/01 15:33:56;;;;;;;15.55;7.72;;;;;;;4.77;83.82;101007.31;5324078;33;33598;-86
2022/12/01 15:37:03;;;;;;;15.30;8.00;;;;;;;4.74;84.60;101004.91;5324122;33;34061;-86
2022/12/01 15:40:08;;;;;;;17.25;7.10;;;;;;;4.68;86.44;101008.91;5322292;33;33608;-86
2022/12/01 15:43:38;;;;;;;14.63;8.20;;;;;;;4.65;88.21;101008.28;5324212;33;33017;-91
2022/12/01 15:46:42;;;;;;;17.52;9.25;;;;;;;4.59;88.01;101004.28;5323971;33;33858;-87
2022/12/01 15:49:49;;;;;;;15.98;7.80;;;;;;;4.57;88.44;101002.75;5316520;33;31231;-87
2022/12/01 15:52:52;;;;;;;20.80;8.30;;;;;;;4.55;89.98;101009.03;5327314;33;33271;-86
2022/12/01 15:55:57;;;;;;;19.30;8.73;;;;;;;4.51;89.82;101012.09;5330455;33;34021;-86
2022/12/01 15:59:22;;;;;;;16.30;8.75;;;;;;;4.50;89.05;101013.91;5325395;33;33369;-86
2022/12/01 16:02:30;;;;;;;19.52;8.85;;;;;;;4.51;88.36;101006.75;5346374;33;34423;-86
2022/12/01 16:05:34;;;;;;;17.50;9.25;;;;;;;4.50;88.56;101005.03;5341857;33;33195;-85
2022/12/01 16:08:37;;;;;;;20.00;9.07;;;;;;;4.44;88.98;101014.38;5345256;33;33447;-86
2022/12/01 16:12:05;;;;;;;16.12;8.45;;;;;;;4.40;90.00;101014.75;5325299;33;34150;-86
2022/12/01 16:15:17;;;;;;;16.48;8.45;;;;;;;4.37;90.36;101018.50;5342654;33;33756;-85
2022/12/01 16:18:54;;;;;;;19.40;8.73;;;;;;;4.35;89.85;101014.25;5339769;33;34173;-85
2022/12/01 16:22:15;;;;;;;20.05;9.85;;;;;;;4.29;89.21;101013.78;5326560;33;34390;-85
2022/12/01 16:25:37;;;;;;;21.95;9.32;;;;;;;4.29;89.84;101015.59;5342471;33;32001;-90
2022/12/01 16:28:41;;;;;;;16.37;8.93;;;;;;;4.22;90.27;101017.06;5349369;33;33499;-86
2022/12/01 16:31:43;;;;;;;21.98;9.60;;;;;;;4.19;90.51;101012.81;5344421;33;33520;-86
2022/12/01 16:35:22;;;;;;;20.12;10.55;;;;;;;4.16;90.41;101010.41;5335216;33;34220;-86
2022/12/01 16:38:27;;;;;;;18.58;9.90;;;;;;;4.12;90.90;101021.41;5335733;33;33109;-86
2022/12/01 16:41:39;;;;;;;23.62;10.68;;;;;;;4.10;91.21;101016.22;5345611;33;31652;-86
2022/12/01 16:44:45;;;;;;;28.67;10.48;;;;;;;4.07;92.09;101024.44;5333936;33;32601;-86
2022/12/01 16:47:48;;;;;;;15.70;9.10;;;;;;;4.02;93.14;101011.47;5349902;33;34586;-86
2022/12/01 16:50:52;;;;;;;17.65;9.55;;;;;;;4.00;94.09;101020.56;5339904;33;32797;-86
2022/12/01 16:53:55;;;;;;;19.75;10.60;;;;;;;3.95;93.91;101014.72;5345930;33;34502;-86
2022/12/01 16:56:57;;;;;;;20.33;9.65;;;;;;;3.93;93.19;101016.69;5327517;33;32875;-85
